Terminal Aerodrome Forecast
Issued by NWS

Home | Current Version | Previous Version | Graphics & Text | Print | Product List | Glossary On
Versions: 1 2 3 4 5 6 7 8 9 10 11 12 13 14 15 16 17 18 19 20 21 22 23 24 25 26
000
FTUS43 KDLH 251700 RRA
TAFHIB
TAF
KHIB 251740Z 2518/2618 29014G24KT P6SM SKC
     FM252200 28009G18KT P6SM SKC
     FM260000 28008KT P6SM SKC
     FM260800 VRB03KT P6SM SCT220
      TEMPO 2608/2612 3SM BR=

USA.gov is the U.S. government's official web portal to all federal, state and local government web resources and services.